Time;durP1;ratioP1;P1;durP2;ratioP2;P2;SDS_P1;SDS_P2;PMS_P1;PMS_P2;Temp;Humidity;BMP_temperature;BMP_pressure;BME280_temperature;BME280_humidity;BME280_pressure;Samples;Min_cycle;Max_cycle;Signal;HPM_P1;HPM_P2
2022/03/28 00:02:04;;;;;;;14.30;8.83;;;;;;;4.28;100.00;97186.78;5048909;27;105696;-55
2022/03/28 00:04:31;;;;;;;12.43;9.07;;;;;;;4.19;100.00;97176.56;5049353;27;101861;-54
2022/03/28 00:06:58;;;;;;;13.27;9.30;;;;;;;4.14;100.00;97185.03;5049322;27;105016;-54
2022/03/28 00:09:27;;;;;;;11.73;9.00;;;;;;;3.93;100.00;97187.69;5048701;27;105306;-53
2022/03/28 00:11:54;;;;;;;15.47;10.33;;;;;;;3.95;100.00;97180.44;5048727;27;101855;-55
2022/03/28 00:14:23;;;;;;;17.07;10.17;;;;;;;4.10;100.00;97181.16;5048287;27;105459;-56
2022/03/28 00:16:50;;;;;;;14.27;10.47;;;;;;;4.15;100.00;97180.59;5047699;27;105776;-54
2022/03/28 00:19:17;;;;;;;14.30;10.27;;;;;;;4.09;100.00;97179.53;5051591;27;102005;-53
2022/03/28 00:21:45;;;;;;;12.87;10.23;;;;;;;4.08;100.00;97175.28;5047757;27;105204;-55
2022/03/28 00:24:13;;;;;;;12.40;9.63;;;;;;;4.04;100.00;97175.84;5046390;27;102023;-54
2022/03/28 00:26:42;;;;;;;12.03;9.80;;;;;;;4.17;100.00;97173.31;5048895;27;105480;-54
2022/03/28 00:29:11;;;;;;;12.30;9.97;;;;;;;4.14;100.00;97168.44;5048331;27;103898;-55
2022/03/28 00:31:39;;;;;;;12.53;10.03;;;;;;;4.25;100.00;97160.03;5047860;27;101978;-55
2022/03/28 00:34:06;;;;;;;12.03;9.97;;;;;;;4.30;100.00;97168.13;5047922;27;105550;-56
2022/03/28 00:36:33;;;;;;;16.47;11.17;;;;;;;4.16;100.00;97164.59;5047426;27;105360;-54
2022/03/28 00:39:00;;;;;;;13.87;10.20;;;;;;;3.82;100.00;97166.38;5048034;27;101877;-53
2022/03/28 00:41:28;;;;;;;15.30;10.17;;;;;;;3.74;100.00;97162.03;5050877;27;105071;-55
2022/03/28 00:43:58;;;;;;;13.23;9.23;;;;;;;3.50;100.00;97161.63;5048032;27;101944;-56
2022/03/28 00:46:26;;;;;;;14.80;9.93;;;;;;;3.66;100.00;97161.38;5048586;27;105668;-54
2022/03/28 00:48:55;;;;;;;16.87;10.63;;;;;;;3.83;100.00;97160.88;5048076;27;105146;-55
2022/03/28 00:51:24;;;;;;;12.83;10.03;;;;;;;3.66;100.00;97158.72;5047649;27;102018;-56
2022/03/28 00:53:51;;;;;;;11.90;10.10;;;;;;;3.67;100.00;97158.53;5047977;27;104040;-55
2022/03/28 00:56:19;;;;;;;13.57;10.63;;;;;;;3.68;100.00;97156.72;5046868;27;104063;-55
2022/03/28 00:58:47;;;;;;;16.57;10.43;;;;;;;3.63;100.00;97151.19;5047410;27;101959;-56
2022/03/28 01:01:17;;;;;;;13.40;9.63;;;;;;;3.40;100.00;97155.84;5049329;27;102232;-54
2022/03/28 01:03:44;;;;;;;13.80;9.60;;;;;;;3.24;100.00;97153.44;5051560;27;105579;-55
2022/03/28 01:06:13;;;;;;;14.27;10.17;;;;;;;3.22;100.00;97156.25;5048651;27;105453;-56
2022/03/28 01:08:40;;;;;;;13.67;10.27;;;;;;;3.24;100.00;97154.28;5046914;27;105761;-54
2022/03/28 01:11:09;;;;;;;14.60;9.37;;;;;;;3.18;100.00;97144.47;5047475;27;101833;-54
2022/03/28 01:13:40;;;;;;;13.70;9.80;;;;;;;3.08;100.00;97149.25;5050206;27;102301;-54
2022/03/28 01:16:08;;;;;;;13.27;9.53;;;;;;;3.13;100.00;97146.06;5047881;27;105166;-53
2022/03/28 01:18:35;;;;;;;13.43;9.53;;;;;;;2.87;100.00;97146.56;5048425;27;101952;-55
2022/03/28 01:21:09;;;;;;;12.27;9.43;;;;;;;2.79;100.00;97137.97;5048542;27;104732;-54
2022/03/28 01:23:38;;;;;;;12.50;9.87;;;;;;;2.88;100.00;97142.94;5051227;27;103061;-55
2022/03/28 01:26:05;;;;;;;14.33;10.17;;;;;;;2.80;100.00;97144.84;5056746;27;101792;-53
2022/03/28 01:28:33;;;;;;;11.30;9.27;;;;;;;2.81;100.00;97147.31;5051762;27;102795;-56
2022/03/28 01:31:00;;;;;;;12.37;9.97;;;;;;;2.71;100.00;97140.69;5053466;27;102151;-55
2022/03/28 01:33:27;;;;;;;12.47;10.13;;;;;;;2.74;100.00;97137.72;5052509;27;102686;-54
2022/03/28 01:35:54;;;;;;;12.53;9.43;;;;;;;2.80;100.00;97142.22;5050435;27;105487;-55
2022/03/28 01:38:23;;;;;;;12.93;9.33;;;;;;;2.62;100.00;97141.81;5052965;27;101876;-55
2022/03/28 01:40:51;;;;;;;11.90;9.70;;;;;;;2.68;100.00;97148.97;5051684;27;105160;-55
2022/03/28 01:43:19;;;;;;;13.63;10.03;;;;;;;2.67;100.00;97144.72;5051179;27;105320;-55
2022/03/28 01:45:46;;;;;;;14.17;9.50;;;;;;;2.80;100.00;97147.47;5055496;27;102220;-54
2022/03/28 01:48:14;;;;;;;14.63;10.50;;;;;;;2.88;100.00;97135.06;5050980;27;105026;-56
2022/03/28 01:50:41;;;;;;;15.00;10.97;;;;;;;2.78;100.00;97142.41;5050422;27;101892;-54
2022/03/28 01:53:09;;;;;;;15.97;10.27;;;;;;;2.81;100.00;97133.34;5052093;27;102385;-54
2022/03/28 01:55:39;;;;;;;12.77;10.80;;;;;;;2.84;100.00;97127.75;5048963;27;105135;-54
2022/03/28 01:58:06;;;;;;;15.93;11.13;;;;;;;2.86;100.00;97131.00;5051906;27;101794;-55
2022/03/28 02:00:33;;;;;;;15.33;10.70;;;;;;;2.79;100.00;97124.84;5050420;27;104160;-56
2022/03/28 02:03:01;;;;;;;13.33;10.57;;;;;;;2.59;100.00;97126.41;5050024;27;105364;-54
2022/03/28 02:05:29;;;;;;;15.83;10.40;;;;;;;2.57;100.00;97118.72;5050507;27;102076;-52
2022/03/28 02:07:56;;;;;;;15.20;10.50;;;;;;;2.63;100.00;97117.97;5053219;27;105474;-54
2022/03/28 02:10:24;;;;;;;13.97;10.23;;;;;;;2.76;100.00;97110.28;5050086;27;101929;-54
2022/03/28 02:12:53;;;;;;;17.80;11.17;;;;;;;2.78;100.00;97110.09;5050456;27;103957;-55
2022/03/28 02:15:21;;;;;;;14.20;10.87;;;;;;;2.73;100.00;97109.84;5051000;27;102538;-55
2022/03/28 02:17:48;;;;;;;15.93;11.23;;;;;;;2.60;100.00;97112.28;5050201;27;101981;-55
2022/03/28 02:20:16;;;;;;;15.27;10.77;;;;;;;2.38;100.00;97107.97;5049796;27;105814;-54
2022/03/28 02:22:46;;;;;;;15.13;10.17;;;;;;;2.37;100.00;97109.78;5049608;27;105629;-55
2022/03/28 02:25:17;;;;;;;16.17;10.57;;;;;;;2.38;100.00;97102.72;5049930;27;101960;-53
2022/03/28 02:27:44;;;;;;;14.23;10.03;;;;;;;2.37;100.00;97108.97;5051536;27;102851;-56
2022/03/28 02:30:15;;;;;;;12.50;9.60;;;;;;;2.21;100.00;97101.28;5052851;27;105591;-56
2022/03/28 02:32:42;;;;;;;17.97;10.03;;;;;;;2.08;100.00;97101.91;5051076;27;103562;-52
2022/03/28 02:35:11;;;;;;;15.77;10.77;;;;;;;2.06;100.00;97095.19;5048809;27;105021;-55
2022/03/28 02:37:38;;;;;;;15.40;10.20;;;;;;;2.03;100.00;97092.94;5049912;27;101908;-54
2022/03/28 02:40:08;;;;;;;12.50;9.87;;;;;;;2.07;100.00;97088.97;5049822;27;103613;-55
2022/03/28 02:42:35;;;;;;;13.00;9.47;;;;;;;2.24;100.00;97088.59;5051780;27;102760;-55
2022/03/28 02:45:02;;;;;;;14.23;10.43;;;;;;;2.19;100.00;97085.69;5052117;27;102228;-54
2022/03/28 02:47:31;;;;;;;14.13;10.17;;;;;;;2.33;100.00;97087.53;5049657;27;105629;-55
2022/03/28 02:49:59;;;;;;;13.80;10.13;;;;;;;2.39;100.00;97084.16;5048868;27;105822;-54
2022/03/28 02:52:26;;;;;;;12.20;10.03;;;;;;;2.34;100.00;97085.69;5052790;27;101804;-54
2022/03/28 02:54:53;;;;;;;13.97;10.90;;;;;;;2.31;100.00;97080.81;5048881;27;103737;-54
2022/03/28 02:57:20;;;;;;;16.70;11.03;;;;;;;2.17;100.00;97089.50;5049014;27;101894;-54
2022/03/28 02:59:47;;;;;;;16.53;11.13;;;;;;;2.15;100.00;97081.00;5049505;27;105221;-55
2022/03/28 03:02:14;;;;;;;13.43;10.23;;;;;;;2.24;100.00;97080.72;5048869;27;105778;-55
2022/03/28 03:04:43;;;;;;;13.73;10.37;;;;;;;2.35;100.00;97080.28;5049506;27;101827;-53
2022/03/28 03:07:10;;;;;;;15.77;11.00;;;;;;;2.39;100.00;97085.97;5049139;27;105300;-53
2022/03/28 03:09:36;;;;;;;13.77;10.47;;;;;;;2.35;100.00;97087.34;5048689;27;105670;-54
2022/03/28 03:12:04;;;;;;;13.40;10.43;;;;;;;2.37;100.00;97080.09;5049285;27;101935;-55
2022/03/28 03:14:31;;;;;;;15.83;10.73;;;;;;;2.39;100.00;97083.34;5052408;27;104554;-53
2022/03/28 03:16:58;;;;;;;14.77;10.53;;;;;;;2.27;100.00;97084.81;5050437;27;101782;-53
2022/03/28 03:19:25;;;;;;;12.83;10.57;;;;;;;2.05;100.00;97076.03;5050534;27;102300;-54
2022/03/28 03:21:54;;;;;;;13.13;9.13;;;;;;;1.78;100.00;97075.81;5048426;27;105247;-54
2022/03/28 03:24:21;;;;;;;14.60;10.40;;;;;;;1.88;100.00;97073.75;5051861;27;102168;-52
2022/03/28 03:26:48;;;;;;;14.83;10.40;;;;;;;1.99;100.00;97075.94;5050552;27;103157;-54
2022/03/28 03:29:14;;;;;;;14.27;10.30;;;;;;;1.92;100.00;97075.03;5049755;27;103244;-53
2022/03/28 03:31:41;;;;;;;15.83;11.00;;;;;;;2.09;100.00;97072.03;5050500;27;101874;-55
2022/03/28 03:34:08;;;;;;;17.43;11.60;;;;;;;2.07;100.00;97078.50;5050630;27;102377;-55
2022/03/28 03:36:35;;;;;;;14.77;10.93;;;;;;;2.12;100.00;97081.34;5053243;27;102594;-54
2022/03/28 03:39:04;;;;;;;13.50;10.60;;;;;;;2.21;100.00;97081.09;5050571;27;102556;-55
2022/03/28 03:41:32;;;;;;;14.23;10.47;;;;;;;2.10;100.00;97083.34;5049385;27;102740;-53
2022/03/28 03:43:59;;;;;;;16.73;11.20;;;;;;;2.12;100.00;97092.69;5050375;27;101738;-55
2022/03/28 03:46:26;;;;;;;17.17;11.47;;;;;;;2.02;100.00;97094.75;5049410;27;102393;-55
2022/03/28 03:48:54;;;;;;;14.77;10.63;;;;;;;1.96;100.00;97092.03;5049480;27;102763;-52
2022/03/28 03:51:22;;;;;;;15.43;11.23;;;;;;;1.93;100.00;97101.09;5048594;27;102027;-55
2022/03/28 03:53:49;;;;;;;15.87;11.33;;;;;;;1.84;100.00;97089.03;5049981;27;102625;-52
2022/03/28 03:56:17;;;;;;;13.53;10.37;;;;;;;1.85;100.00;97095.09;5052489;27;102458;-53
2022/03/28 03:58:45;;;;;;;13.90;10.77;;;;;;;1.78;100.00;97094.19;5049886;27;102856;-53
2022/03/28 04:01:13;;;;;;;13.53;10.40;;;;;;;1.85;100.00;97084.59;5049504;27;103159;-55
2022/03/28 04:03:40;;;;;;;15.03;11.00;;;;;;;1.66;100.00;97093.00;5047851;27;102025;-52
2022/03/28 04:06:10;;;;;;;16.50;11.07;;;;;;;1.68;100.00;97086.59;5050050;27;102805;-55
2022/03/28 04:08:37;;;;;;;13.93;11.07;;;;;;;1.64;100.00;97093.16;5049205;27;103297;-52
2022/03/28 04:11:04;;;;;;;15.70;10.80;;;;;;;1.69;100.00;97082.97;5048519;27;101920;-53
2022/03/28 04:13:32;;;;;;;13.80;10.33;;;;;;;1.65;100.00;97088.75;5048330;27;105667;-54
2022/03/28 04:16:00;;;;;;;14.10;10.57;;;;;;;1.49;100.00;97088.88;5047172;27;105350;-55
2022/03/28 04:18:27;;;;;;;15.00;11.27;;;;;;;1.58;100.00;97093.06;5051128;27;102052;-52
2022/03/28 04:20:54;;;;;;;18.10;11.57;;;;;;;1.77;100.00;97100.44;5045849;27;102800;-54
2022/03/28 04:23:22;;;;;;;15.20;11.17;;;;;;;1.77;100.00;97103.03;5047408;27;101791;-54
2022/03/28 04:25:49;;;;;;;17.37;10.30;;;;;;;1.79;100.00;97098.44;5047770;27;104176;-54
2022/03/28 04:28:16;;;;;;;15.50;10.60;;;;;;;1.87;100.00;97098.38;5049050;27;103004;-55
2022/03/28 04:30:45;;;;;;;18.00;11.40;;;;;;;1.83;100.00;97097.09;5049630;27;101866;-54
2022/03/28 04:33:12;;;;;;;14.90;11.30;;;;;;;1.81;100.00;97099.09;5047815;27;105331;-54
2022/03/28 04:35:41;;;;;;;14.60;10.90;;;;;;;1.90;100.00;97090.94;5048619;27;102782;-54
2022/03/28 04:38:09;;;;;;;15.17;10.53;;;;;;;1.83;100.00;97091.84;5047936;27;101873;-54
2022/03/28 04:40:38;;;;;;;15.60;10.53;;;;;;;1.81;100.00;97092.00;5052107;27;102668;-55
2022/03/28 04:43:05;;;;;;;17.23;11.00;;;;;;;1.74;100.00;97098.16;5047976;27;101819;-54
2022/03/28 04:45:33;;;;;;;15.17;10.87;;;;;;;1.76;100.00;97096.97;5047767;27;104810;-55
2022/03/28 04:48:02;;;;;;;18.53;11.27;;;;;;;1.63;100.00;97101.19;5048620;27;103086;-54
2022/03/28 04:50:29;;;;;;;16.60;11.23;;;;;;;1.52;100.00;97099.00;5047099;27;101961;-54
2022/03/28 04:52:56;;;;;;;16.63;10.80;;;;;;;1.53;100.00;97095.41;5047829;27;105551;-53
2022/03/28 04:55:24;;;;;;;19.70;11.47;;;;;;;1.55;100.00;97090.78;5048342;27;102608;-51
2022/03/28 04:57:51;;;;;;;17.60;10.93;;;;;;;1.24;100.00;97093.50;5050248;27;101772;-54
2022/03/28 05:00:18;;;;;;;16.33;9.77;;;;;;;1.06;100.00;97086.94;5051346;27;105619;-55
2022/03/28 05:02:46;;;;;;;17.13;10.97;;;;;;;1.06;100.00;97094.78;5054965;27;104131;-55
2022/03/28 05:05:14;;;;;;;15.33;10.33;;;;;;;1.12;100.00;97094.91;5050991;27;105255;-53
2022/03/28 05:07:41;;;;;;;16.17;10.33;;;;;;;1.13;100.00;97095.72;5050628;27;105454;-54
2022/03/28 05:10:09;;;;;;;13.57;10.80;;;;;;;1.19;100.00;97097.63;5052593;27;101789;-54
2022/03/28 05:12:36;;;;;;;16.60;11.33;;;;;;;1.26;100.00;97093.34;5052651;27;102433;-55
2022/03/28 05:15:04;;;;;;;18.20;10.73;;;;;;;1.12;100.00;97096.72;5050520;27;106439;-57
2022/03/28 05:17:32;;;;;;;15.17;10.60;;;;;;;1.08;100.00;97100.66;5050910;27;101747;-57
2022/03/28 05:20:00;;;;;;;15.50;10.43;;;;;;;1.09;100.00;97097.06;5050913;27;104841;-56
2022/03/28 05:22:29;;;;;;;16.40;10.83;;;;;;;1.28;100.00;97099.22;5050594;27;105850;-56
2022/03/28 05:24:57;;;;;;;15.07;11.30;;;;;;;1.35;100.00;97094.88;5055789;27;101778;-54
2022/03/28 05:27:24;;;;;;;18.03;11.30;;;;;;;1.33;100.00;97099.50;5050408;27;105667;-57
2022/03/28 05:29:52;;;;;;;18.03;11.77;;;;;;;1.47;100.00;97103.97;5052128;27;101867;-57
2022/03/28 05:32:19;;;;;;;19.10;11.70;;;;;;;1.59;100.00;97097.31;5050679;27;105048;-54
2022/03/28 05:34:47;;;;;;;17.70;11.93;;;;;;;1.73;100.00;97092.09;5050379;27;105431;-56
2022/03/28 05:37:16;;;;;;;22.53;12.03;;;;;;;1.88;100.00;97089.50;5050713;27;101904;-57
2022/03/28 05:39:46;;;;;;;18.80;12.13;;;;;;;1.90;100.00;97092.75;5050829;27;103987;-56
2022/03/28 05:42:13;;;;;;;20.17;12.30;;;;;;;1.91;100.00;97089.94;5049909;27;105640;-56
2022/03/28 05:44:41;;;;;;;16.80;11.77;;;;;;;1.82;100.00;97090.22;5050684;27;101945;-55
2022/03/28 05:47:09;;;;;;;17.97;12.53;;;;;;;2.06;100.00;97085.53;5053299;27;105218;-56
2022/03/28 05:49:36;;;;;;;18.20;12.23;;;;;;;2.31;100.00;97088.69;5050455;27;101959;-53
2022/03/28 05:52:03;;;;;;;16.87;12.13;;;;;;;2.27;100.00;97095.28;5050260;27;105882;-56
2022/03/28 05:54:31;;;;;;;17.17;12.57;;;;;;;2.43;100.00;97089.84;5049835;27;105504;-56
2022/03/28 05:56:59;;;;;;;17.97;12.87;;;;;;;2.67;100.00;97089.56;5050240;27;101872;-56
2022/03/28 05:59:26;;;;;;;18.03;13.23;;;;;;;2.87;100.00;97088.78;5050398;27;105004;-56
2022/03/28 06:01:54;;;;;;;17.27;12.10;;;;;;;2.89;100.00;97085.97;5049870;27;105626;-55
2022/03/28 06:04:21;;;;;;;20.40;13.07;;;;;;;3.07;100.00;97086.38;5050236;27;101874;-56
2022/03/28 06:06:48;;;;;;;20.40;13.07;;;;;;;3.09;100.00;97087.81;5053381;27;103685;-55
2022/03/28 06:09:15;;;;;;;20.70;13.37;;;;;;;3.13;100.00;97093.50;5051186;27;101803;-56
2022/03/28 06:11:42;;;;;;;20.10;13.27;;;;;;;3.27;100.00;97084.75;5050296;27;105176;-56
2022/03/28 06:14:11;;;;;;;23.87;13.80;;;;;;;3.46;100.00;97076.22;5049425;27;105866;-55
2022/03/28 06:16:37;;;;;;;21.77;14.57;;;;;;;3.66;100.00;97079.84;5049856;27;101901;-55
2022/03/28 06:19:05;;;;;;;25.20;14.60;;;;;;;3.86;100.00;97080.78;5049750;27;105210;-54
2022/03/28 06:21:33;;;;;;;22.87;14.23;;;;;;;4.03;100.00;97082.94;5051096;27;103035;-56
2022/03/28 06:24:00;;;;;;;20.30;14.47;;;;;;;4.35;100.00;97077.03;5051842;27;101874;-54
2022/03/28 06:26:27;;;;;;;23.40;14.17;;;;;;;4.51;100.00;97073.25;5050092;27;105191;-53
2022/03/28 06:28:57;;;;;;;21.93;14.13;;;;;;;4.75;100.00;97072.78;5052806;27;105354;-51
2022/03/28 06:31:25;;;;;;;18.77;13.47;;;;;;;4.96;100.00;97075.28;5049942;27;105007;-55
2022/03/28 06:33:52;;;;;;;18.10;13.00;;;;;;;5.21;100.00;97077.16;5049093;27;106571;-53
2022/03/28 06:36:21;;;;;;;20.23;13.97;;;;;;;5.55;100.00;97070.88;5049926;27;101816;-50
2022/03/28 06:38:48;;;;;;;19.13;12.87;;;;;;;5.71;100.00;97076.59;5049913;27;105628;-53
2022/03/28 06:41:16;;;;;;;18.20;13.03;;;;;;;5.95;100.00;97072.56;5049255;27;105281;-51
2022/03/28 06:43:43;;;;;;;20.50;13.83;;;;;;;6.17;100.00;97073.94;5049836;27;101742;-54
2022/03/28 06:46:10;;;;;;;18.30;13.43;;;;;;;6.28;100.00;97073.31;5049370;27;105662;-52
2022/03/28 06:48:39;;;;;;;22.83;14.27;;;;;;;6.46;100.00;97073.44;5049068;27;103820;-53
2022/03/28 06:51:07;;;;;;;20.40;12.67;;;;;;;6.68;100.00;97070.34;5052709;27;101921;-55
2022/03/28 06:53:34;;;;;;;16.13;13.27;;;;;;;6.90;100.00;97076.13;5048900;27;104421;-54
2022/03/28 06:56:02;;;;;;;15.63;12.23;;;;;;;7.04;100.00;97075.06;5048875;27;101984;-56
2022/03/28 06:58:31;;;;;;;16.20;12.10;;;;;;;7.28;100.00;97067.19;5049428;27;104901;-54
2022/03/28 07:00:57;;;;;;;17.70;11.43;;;;;;;7.27;100.00;97070.03;5048856;27;105550;-55
2022/03/28 07:03:25;;;;;;;14.17;11.13;;;;;;;7.49;100.00;97069.50;5049265;27;101895;-53
2022/03/28 07:05:53;;;;;;;15.03;10.93;;;;;;;7.52;100.00;97069.03;5049488;27;105785;-55
2022/03/28 07:08:20;;;;;;;14.37;10.87;;;;;;;7.63;100.00;97064.91;5048810;27;105372;-53
2022/03/28 07:10:47;;;;;;;16.67;11.57;;;;;;;7.95;100.00;97067.28;5049220;27;101934;-50
2022/03/28 07:13:14;;;;;;;13.47;10.77;;;;;;;7.96;100.00;97063.59;5052255;27;105167;-52
2022/03/28 07:15:41;;;;;;;12.70;11.20;;;;;;;8.24;100.00;97058.66;5048922;27;102248;-54
2022/03/28 07:18:09;;;;;;;16.73;10.77;;;;;;;8.47;100.00;97063.34;5049167;27;105358;-52
2022/03/28 07:20:39;;;;;;;13.80;11.00;;;;;;;8.67;100.00;97063.94;5047339;27;105377;-52
2022/03/28 07:23:09;;;;;;;12.80;10.60;;;;;;;8.64;100.00;97065.19;5050262;27;101837;-51
2022/03/28 07:25:37;;;;;;;12.47;10.30;;;;;;;8.85;100.00;97056.78;5049040;27;105438;-54
2022/03/28 07:28:08;;;;;;;11.90;9.73;;;;;;;8.91;100.00;97055.06;5048378;27;106026;-54
2022/03/28 07:30:35;;;;;;;17.00;11.13;;;;;;;9.09;100.00;97052.34;5051364;27;101847;-55
2022/03/28 07:33:03;;;;;;;14.23;10.83;;;;;;;9.52;100.00;97050.31;5048872;27;105053;-55
2022/03/28 07:35:32;;;;;;;13.47;9.70;;;;;;;9.63;100.00;97052.19;5051704;27;105780;-57
2022/03/28 07:37:59;;;;;;;12.53;9.93;;;;;;;9.89;100.00;97057.06;5049958;27;105428;-53
2022/03/28 07:40:28;;;;;;;12.93;9.70;;;;;;;10.08;100.00;97048.00;5048708;27;106593;-54
2022/03/28 07:42:55;;;;;;;11.00;9.60;;;;;;;10.27;100.00;97036.19;5050830;27;101840;-52
2022/03/28 07:45:23;;;;;;;12.50;9.97;;;;;;;10.32;100.00;97049.59;5049888;27;105225;-54
2022/03/28 07:47:50;;;;;;;11.90;9.97;;;;;;;10.50;100.00;97036.16;5049901;27;102489;-55
2022/03/28 07:50:17;;;;;;;11.40;9.17;;;;;;;10.62;100.00;97040.44;5048417;27;101897;-54
2022/03/28 07:52:44;;;;;;;13.27;9.73;;;;;;;10.74;100.00;97032.44;5049359;27;105313;-51
2022/03/28 07:55:13;;;;;;;11.37;8.83;;;;;;;10.86;98.95;97035.88;5048376;27;105820;-51
2022/03/28 07:57:43;;;;;;;11.53;9.67;;;;;;;11.07;100.00;97040.53;5052916;27;101712;-51
2022/03/28 08:00:12;;;;;;;14.37;9.17;;;;;;;10.95;97.58;97035.25;5048921;27;106407;-56
2022/03/28 08:02:43;;;;;;;14.47;9.27;;;;;;;11.23;92.98;97037.13;5051313;27;101659;-54
2022/03/28 08:05:12;;;;;;;10.80;9.27;;;;;;;11.44;92.26;97039.09;5049428;27;104986;-55
2022/03/28 08:07:39;;;;;;;10.63;8.93;;;;;;;11.49;91.05;97039.16;5048625;27;105282;-56
2022/03/28 08:10:09;;;;;;;10.67;8.90;;;;;;;11.68;96.04;97032.63;5049223;27;101935;-55
2022/03/28 08:12:37;;;;;;;12.07;8.83;;;;;;;11.77;89.30;97031.19;5050590;27;104199;-54
2022/03/28 08:15:09;;;;;;;11.50;9.10;;;;;;;11.87;87.08;97028.66;5050060;27;102988;-54
2022/03/28 08:17:37;;;;;;;12.27;9.00;;;;;;;11.95;82.49;97031.72;5052830;27;102145;-55
2022/03/28 08:20:06;;;;;;;10.10;8.50;;;;;;;11.97;84.58;97024.31;5048684;27;105818;-55
2022/03/28 08:22:33;;;;;;;9.97;8.50;;;;;;;12.10;84.37;97029.28;5049223;27;102019;-54
2022/03/28 08:25:00;;;;;;;14.53;8.20;;;;;;;12.60;81.68;97022.00;5049118;27;104818;-56
2022/03/28 08:27:27;;;;;;;13.03;8.70;;;;;;;12.83;74.52;97020.94;5048217;27;103883;-54
2022/03/28 08:29:54;;;;;;;11.93;9.00;;;;;;;12.73;74.74;97020.81;5049179;27;102034;-56
2022/03/28 08:32:23;;;;;;;9.57;8.50;;;;;;;13.28;77.84;97016.13;5048687;27;104773;-55
2022/03/28 08:34:50;;;;;;;9.33;8.33;;;;;;;13.48;69.43;97019.00;5048351;27;105352;-56
2022/03/28 08:37:18;;;;;;;9.07;7.97;;;;;;;13.15;66.69;97016.53;5048906;27;101960;-56
2022/03/28 08:40:10;;;;;;;9.73;8.73;;;;;;;13.38;68.45;97010.91;5051467;27;105353;-55
2022/03/28 08:42:39;;;;;;;10.37;8.53;;;;;;;13.49;67.18;97012.59;5049070;27;102034;-54
2022/03/28 08:45:10;;;;;;;10.63;8.43;;;;;;;13.67;63.53;97009.56;5049384;27;104783;-56
2022/03/28 08:47:42;;;;;;;9.70;8.07;;;;;;;14.02;60.45;97007.19;5048560;27;105361;-55
2022/03/28 08:50:12;;;;;;;10.63;8.43;;;;;;;14.04;59.58;97007.72;5048996;27;101833;-56
2022/03/28 08:52:41;;;;;;;14.63;8.50;;;;;;;14.23;59.15;97003.63;5048923;27;105063;-55
2022/03/28 08:55:08;;;;;;;10.30;7.73;;;;;;;14.50;55.82;97006.97;5049509;27;102845;-55
2022/03/28 08:57:35;;;;;;;9.37;7.33;;;;;;;14.76;51.19;96998.00;5049127;27;101817;-54
2022/03/28 09:00:11;;;;;;;10.83;8.07;;;;;;;14.57;51.22;97000.34;5048958;27;105199;-55
2022/03/28 09:02:44;;;;;;;9.17;8.17;;;;;;;14.89;51.22;97000.19;5051830;27;105736;-56
2022/03/28 09:05:12;;;;;;;8.77;7.50;;;;;;;15.31;50.39;97006.22;5049154;27;105604;-55
2022/03/28 09:07:39;;;;;;;9.73;7.80;;;;;;;15.53;48.24;96993.44;5049789;27;102912;-55
2022/03/28 09:10:21;;;;;;;12.23;7.97;;;;;;;15.59;47.87;96995.03;5048592;27;101856;-55
2022/03/28 09:12:58;;;;;;;9.53;7.27;;;;;;;16.00;48.99;96986.72;5048893;27;105446;-55
2022/03/28 09:15:26;;;;;;;9.93;7.50;;;;;;;16.13;46.83;96980.00;5048143;27;105836;-56
2022/03/28 09:17:58;;;;;;;8.63;7.47;;;;;;;16.47;48.71;96981.81;5048778;27;101854;-55
2022/03/28 09:20:52;;;;;;;9.67;7.80;;;;;;;16.47;45.34;96978.34;5048928;27;105711;-55
2022/03/28 09:23:37;;;;;;;10.90;7.83;;;;;;;16.14;45.63;96978.94;5047662;27;105761;-55
2022/03/28 09:26:10;;;;;;;11.07;7.47;;;;;;;16.32;45.74;96971.13;5051961;27;101748;-54
2022/03/28 09:28:48;;;;;;;11.80;7.73;;;;;;;16.52;44.91;96968.38;5049317;27;102507;-56
2022/03/28 09:31:40;;;;;;;10.23;7.60;;;;;;;16.48;44.65;96969.22;5048563;27;101802;-55
2022/03/28 09:34:11;;;;;;;13.00;7.40;;;;;;;16.71;42.01;96973.97;5049928;27;102693;-55
2022/03/28 09:36:48;;;;;;;12.67;6.97;;;;;;;17.25;40.91;96964.03;5049416;27;102650;-54
2022/03/28 09:39:18;;;;;;;11.07;7.60;;;;;;;17.43;40.32;96963.41;5049997;27;101727;-54
2022/03/28 09:42:06;;;;;;;8.83;7.43;;;;;;;17.62;39.91;96958.97;5049696;27;102919;-55
2022/03/28 09:44:48;;;;;;;9.63;7.60;;;;;;;17.76;40.03;96968.00;5051224;27;102615;-55
2022/03/28 09:47:17;;;;;;;10.57;7.43;;;;;;;18.24;39.82;96954.38;5053379;27;101981;-56
2022/03/28 09:49:46;;;;;;;7.90;7.10;;;;;;;18.19;37.25;96949.03;5054576;27;103681;-53
2022/03/28 09:52:16;;;;;;;9.57;7.77;;;;;;;18.46;36.13;96951.19;5051325;27;101844;-56
2022/03/28 09:54:50;;;;;;;11.50;8.00;;;;;;;17.98;36.23;96949.53;5051680;27;105620;-57
2022/03/28 09:57:20;;;;;;;9.50;8.20;;;;;;;17.91;35.54;96947.16;5050846;27;105848;-58
2022/03/28 09:59:48;;;;;;;9.73;8.50;;;;;;;17.75;37.33;96937.59;5052855;27;101752;-57
2022/03/28 10:02:17;;;;;;;10.27;8.03;;;;;;;18.29;36.91;96934.66;5051556;27;105713;-56
2022/03/28 10:04:47;;;;;;;11.17;8.73;;;;;;;18.18;36.49;96927.78;5050984;27;103742;-58
2022/03/28 10:07:14;;;;;;;15.90;9.77;;;;;;;18.06;36.98;96921.97;5052827;27;102029;-58
2022/03/28 10:09:42;;;;;;;9.37;8.20;;;;;;;18.66;36.72;96918.66;5051574;27;104976;-57
2022/03/28 10:12:09;;;;;;;11.53;8.47;;;;;;;18.27;36.53;96918.00;5053458;27;101920;-58
2022/03/28 10:14:36;;;;;;;10.67;8.33;;;;;;;18.41;36.49;96908.16;5051396;27;105587;-58
2022/03/28 10:17:07;;;;;;;11.17;8.57;;;;;;;18.77;36.48;96906.66;5050648;27;105849;-58
2022/03/28 10:19:37;;;;;;;11.60;8.53;;;;;;;18.67;36.37;96906.78;5052971;27;102045;-57
2022/03/28 10:22:09;;;;;;;11.30;8.13;;;;;;;18.84;36.44;96901.69;5052485;27;102857;-58
2022/03/28 10:24:37;;;;;;;10.27;8.43;;;;;;;18.51;36.34;96897.28;5050744;27;105368;-57
2022/03/28 10:27:07;;;;;;;11.60;9.33;;;;;;;18.54;36.22;96896.72;5051341;27;102135;-58
2022/03/28 10:29:36;;;;;;;11.53;8.07;;;;;;;19.34;36.89;96890.25;5051153;27;105559;-58
2022/03/28 10:32:07;;;;;;;12.07;8.67;;;;;;;19.08;35.30;96892.47;5053942;27;105563;-58
2022/03/28 10:34:43;;;;;;;11.07;9.13;;;;;;;18.91;35.98;96886.00;5052590;27;102881;-58
2022/03/28 10:37:33;;;;;;;12.23;9.13;;;;;;;19.77;34.83;96878.97;5051582;27;102688;-58
2022/03/28 10:40:41;;;;;;;11.33;9.37;;;;;;;19.69;35.16;96876.16;5052629;27;101726;-58
2022/03/28 10:43:10;;;;;;;11.90;9.27;;;;;;;19.42;34.48;96870.69;5050887;27;105615;-56
2022/03/28 10:45:38;;;;;;;12.13;9.07;;;;;;;19.81;34.17;96854.91;5051888;27;102981;-58
2022/03/28 10:48:06;;;;;;;11.43;9.37;;;;;;;19.83;34.52;96867.00;5052258;27;101872;-57
2022/03/28 10:50:45;;;;;;;10.10;9.07;;;;;;;20.01;33.76;96857.25;5051943;27;102958;-56
2022/03/28 10:53:16;;;;;;;11.30;9.03;;;;;;;19.30;34.83;96862.25;5051838;27;103017;-56
2022/03/28 10:55:47;;;;;;;11.67;9.37;;;;;;;19.56;34.21;96841.88;5055486;27;101675;-57
2022/03/28 10:58:16;;;;;;;11.07;9.00;;;;;;;20.50;34.23;96841.16;5033166;27;106824;-58
2022/03/28 11:01:18;;;;;;;11.57;9.90;;;;;;;20.59;32.90;96836.66;5050195;27;101994;-58
2022/03/28 11:03:47;;;;;;;13.60;9.50;;;;;;;20.61;33.25;96829.03;4992900;28;105578;-57
2022/03/28 11:06:16;;;;;;;12.70;10.73;;;;;;;21.07;32.27;96826.94;4991914;28;103881;-57
2022/03/28 11:08:46;;;;;;;10.83;9.33;;;;;;;21.40;32.78;96815.59;4991243;28;102059;-58
2022/03/28 11:11:25;;;;;;;11.77;9.63;;;;;;;21.68;32.63;96810.88;5009292;28;103651;-57
2022/03/28 11:14:18;;;;;;;12.60;10.03;;;;;;;21.39;31.56;96807.75;4992153;28;105938;-57
2022/03/28 11:16:51;;;;;;;13.73;10.20;;;;;;;20.97;32.76;96794.72;4991608;28;101877;-58
2022/03/28 11:19:22;;;;;;;12.87;10.40;;;;;;;20.87;31.75;96786.84;5011380;28;102949;-56
2022/03/28 11:25:34;;;;;;;12.37;10.33;;;;;;;21.38;31.46;96762.88;4992284;28;105600;-57